sensor_id;sensor_type;location;lat;lon;timestamp;pressure;altitude;pressure_sealevel;temperature;humidity
30724;BME280;17473;52.286;20.930;2023-04-20T00:02:20;100623.53;;;9.94;89.97
30724;BME280;17473;52.286;20.930;2023-04-20T00:04:47;100619.38;;;9.99;89.48
30724;BME280;17473;52.286;20.930;2023-04-20T00:07:14;100619.78;;;10.10;89.99
30724;BME280;17473;52.286;20.930;2023-04-20T00:09:42;100611.75;;;10.07;89.22
30724;BME280;17473;52.286;20.930;2023-04-20T00:12:09;100610.69;;;10.02;89.73
30724;BME280;17473;52.286;20.930;2023-04-20T00:14:36;100617.75;;;10.26;89.16
30724;BME280;17473;52.286;20.930;2023-04-20T00:17:03;100614.09;;;9.99;89.94
30724;BME280;17473;52.286;20.930;2023-04-20T00:19:31;100617.50;;;9.97;90.82
30724;BME280;17473;52.286;20.930;2023-04-20T00:21:59;100616.66;;;9.98;91.03
30724;BME280;17473;52.286;20.930;2023-04-20T00:24:26;100611.75;;;10.07;90.68
30724;BME280;17473;52.286;20.930;2023-04-20T00:26:53;100614.00;;;9.98;91.40
30724;BME280;17473;52.286;20.930;2023-04-20T00:29:21;100606.19;;;9.99;91.22
30724;BME280;17473;52.286;20.930;2023-04-20T00:31:48;100615.03;;;10.01;91.14
30724;BME280;17473;52.286;20.930;2023-04-20T00:34:15;100608.44;;;10.13;90.73
30724;BME280;17473;52.286;20.930;2023-04-20T00:36:42;100620.50;;;10.06;91.17
30724;BME280;17473;52.286;20.930;2023-04-20T00:39:10;100611.50;;;10.01;91.41
30724;BME280;17473;52.286;20.930;2023-04-20T00:41:37;100611.88;;;10.10;90.86
30724;BME280;17473;52.286;20.930;2023-04-20T00:44:06;100607.91;;;9.99;90.86
30724;BME280;17473;52.286;20.930;2023-04-20T00:46:39;100610.41;;;9.96;90.99
30724;BME280;17473;52.286;20.930;2023-04-20T00:49:07;100613.41;;;10.05;90.71
30724;BME280;17473;52.286;20.930;2023-04-20T00:51:35;100621.16;;;10.00;90.42
30724;BME280;17473;52.286;20.930;2023-04-20T00:54:02;100615.88;;;10.00;90.19
30724;BME280;17473;52.286;20.930;2023-04-20T00:56:30;100626.50;;;10.25;89.19
30724;BME280;17473;52.286;20.930;2023-04-20T00:58:57;100615.34;;;10.09;89.01
30724;BME280;17473;52.286;20.930;2023-04-20T01:01:24;100626.56;;;10.03;89.51
30724;BME280;17473;52.286;20.930;2023-04-20T01:03:52;100627.22;;;9.98;90.05
30724;BME280;17473;52.286;20.930;2023-04-20T01:06:20;100620.50;;;10.06;90.04
30724;BME280;17473;52.286;20.930;2023-04-20T01:08:50;100622.13;;;10.02;89.58
30724;BME280;17473;52.286;20.930;2023-04-20T01:11:17;100612.16;;;9.95;89.74
30724;BME280;17473;52.286;20.930;2023-04-20T01:13:45;100619.78;;;10.10;90.07
30724;BME280;17473;52.286;20.930;2023-04-20T01:16:12;100607.91;;;9.99;89.92
30724;BME280;17473;52.286;20.930;2023-04-20T01:18:46;100615.66;;;10.17;89.61
30724;BME280;17473;52.286;20.930;2023-04-20T01:21:17;100626.25;;;9.96;90.07
30724;BME280;17473;52.286;20.930;2023-04-20T01:23:45;100608.88;;;10.01;90.05
30724;BME280;17473;52.286;20.930;2023-04-20T01:26:16;100609.47;;;9.94;90.23
30724;BME280;17473;52.286;20.930;2023-04-20T01:28:44;100605.91;;;9.93;90.21
30724;BME280;17473;52.286;20.930;2023-04-20T01:31:12;100613.78;;;9.92;90.28
30724;BME280;17473;52.286;20.930;2023-04-20T01:33:39;100607.53;;;9.90;90.45
30724;BME280;17473;52.286;20.930;2023-04-20T01:36:08;100620.22;;;9.98;90.23
30724;BME280;17473;52.286;20.930;2023-04-20T01:38:35;100614.59;;;10.13;89.81
30724;BME280;17473;52.286;20.930;2023-04-20T01:41:05;100611.31;;;9.96;89.91
30724;BME280;17473;52.286;20.930;2023-04-20T01:43:34;100617.91;;;10.30;88.88
30724;BME280;17473;52.286;20.930;2023-04-20T01:46:01;100598.06;;;10.17;88.03
30724;BME280;17473;52.286;20.930;2023-04-20T01:48:29;100608.03;;;10.02;89.11
30724;BME280;17473;52.286;20.930;2023-04-20T01:50:56;100606.09;;;9.98;89.12
30724;BME280;17473;52.286;20.930;2023-04-20T01:53:23;100602.81;;;9.81;90.59
30724;BME280;17473;52.286;20.930;2023-04-20T01:55:51;100606.88;;;9.73;90.53
30724;BME280;17473;52.286;20.930;2023-04-20T01:58:18;100611.31;;;9.96;90.25
30724;BME280;17473;52.286;20.930;2023-04-20T02:00:45;100614.94;;;9.77;90.72
30724;BME280;17473;52.286;20.930;2023-04-20T02:03:12;100610.25;;;9.70;90.87
30724;BME280;17473;52.286;20.930;2023-04-20T02:05:39;100610.34;;;9.71;91.03
30724;BME280;17473;52.286;20.930;2023-04-20T02:08:06;100607.63;;;9.70;90.98
30724;BME280;17473;52.286;20.930;2023-04-20T02:10:33;100613.47;;;9.84;90.87
30724;BME280;17473;52.286;20.930;2023-04-20T02:13:00;100615.78;;;9.97;89.49
30724;BME280;17473;52.286;20.930;2023-04-20T02:15:27;100617.84;;;9.83;89.61
30724;BME280;17473;52.286;20.930;2023-04-20T02:17:54;100618.69;;;9.82;89.53
30724;BME280;17473;52.286;20.930;2023-04-20T02:20:23;100614.41;;;9.63;90.44
30724;BME280;17473;52.286;20.930;2023-04-20T02:22:50;100620.16;;;9.76;90.32
30724;BME280;17473;52.286;20.930;2023-04-20T02:25:17;100621.13;;;9.78;90.20
30724;BME280;17473;52.286;20.930;2023-04-20T02:27:44;100615.44;;;9.90;90.01
30724;BME280;17473;52.286;20.930;2023-04-20T02:30:12;100618.13;;;9.68;90.02
30724;BME280;17473;52.286;20.930;2023-04-20T02:32:39;100613.91;;;9.74;89.89
30724;BME280;17473;52.286;20.930;2023-04-20T02:35:06;100625.84;;;9.64;90.32
30724;BME280;17473;52.286;20.930;2023-04-20T02:37:34;100624.63;;;9.55;90.38
30724;BME280;17473;52.286;20.930;2023-04-20T02:40:01;100620.81;;;9.49;91.56
30724;BME280;17473;52.286;20.930;2023-04-20T02:42:30;100615.94;;;9.37;91.72
30724;BME280;17473;52.286;20.930;2023-04-20T02:44:57;100621.34;;;9.61;90.83
30724;BME280;17473;52.286;20.930;2023-04-20T02:47:24;100621.25;;;9.60;90.96
30724;BME280;17473;52.286;20.930;2023-04-20T02:49:51;100623.84;;;9.58;91.13
30724;BME280;17473;52.286;20.930;2023-04-20T02:52:18;100627.31;;;9.57;90.64
30724;BME280;17473;52.286;20.930;2023-04-20T02:54:45;100615.09;;;9.59;90.11
30724;BME280;17473;52.286;20.930;2023-04-20T02:57:13;100616.19;;;9.43;90.89
30724;BME280;17473;52.286;20.930;2023-04-20T02:59:40;100626.63;;;9.40;91.19
30724;BME280;17473;52.286;20.930;2023-04-20T03:02:07;100629.69;;;9.51;91.40
30724;BME280;17473;52.286;20.930;2023-04-20T03:04:34;100626.72;;;9.43;91.90
30724;BME280;17473;52.286;20.930;2023-04-20T03:07:02;100627.84;;;9.48;91.41
30724;BME280;17473;52.286;20.930;2023-04-20T03:09:30;100626.41;;;9.14;92.99
30724;BME280;17473;52.286;20.930;2023-04-20T03:11:57;100621.25;;;9.17;92.76
30724;BME280;17473;52.286;20.930;2023-04-20T03:14:24;100623.34;;;9.46;91.14
30724;BME280;17473;52.286;20.930;2023-04-20T03:16:51;100622.03;;;9.36;92.02
30724;BME280;17473;52.286;20.930;2023-04-20T03:19:19;100626.16;;;9.50;90.90
30724;BME280;17473;52.286;20.930;2023-04-20T03:21:46;100625.66;;;9.38;91.52
30724;BME280;17473;52.286;20.930;2023-04-20T03:24:13;100626.22;;;9.52;91.42
30724;BME280;17473;52.286;20.930;2023-04-20T03:26:40;100622.69;;;9.51;91.22
30724;BME280;17473;52.286;20.930;2023-04-20T03:29:07;100624.03;;;9.42;90.99
30724;BME280;17473;52.286;20.930;2023-04-20T03:31:34;100625.75;;;9.20;92.77
30724;BME280;17473;52.286;20.930;2023-04-20T03:34:02;100621.59;;;9.25;93.37
30724;BME280;17473;52.286;20.930;2023-04-20T03:36:29;100630.53;;;9.29;93.06
30724;BME280;17473;52.286;20.930;2023-04-20T03:38:56;100626.81;;;9.45;91.89
30724;BME280;17473;52.286;20.930;2023-04-20T03:41:23;100627.25;;;9.34;92.30
30724;BME280;17473;52.286;20.930;2023-04-20T03:43:50;100620.81;;;9.49;91.71
30724;BME280;17473;52.286;20.930;2023-04-20T03:46:17;100628.28;;;9.38;92.26
30724;BME280;17473;52.286;20.930;2023-04-20T03:48:44;100623.78;;;9.35;92.41
30724;BME280;17473;52.286;20.930;2023-04-20T03:51:11;100631.94;;;9.42;92.20
30724;BME280;17473;52.286;20.930;2023-04-20T03:53:39;100632.00;;;9.43;92.25
30724;BME280;17473;52.286;20.930;2023-04-20T03:56:06;100636.06;;;9.35;92.27
30724;BME280;17473;52.286;20.930;2023-04-20T03:58:33;100644.94;;;9.58;91.50
30724;BME280;17473;52.286;20.930;2023-04-20T04:01:03;100631.91;;;9.40;92.22
30724;BME280;17473;52.286;20.930;2023-04-20T04:03:34;100636.38;;;9.64;91.02
30724;BME280;17473;52.286;20.930;2023-04-20T04:06:02;100652.00;;;9.59;90.76
30724;BME280;17473;52.286;20.930;2023-04-20T04:08:29;100637.34;;;9.45;91.77
30724;BME280;17473;52.286;20.930;2023-04-20T04:10:59;100651.81;;;9.54;91.20
30724;BME280;17473;52.286;20.930;2023-04-20T04:13:26;100635.03;;;9.52;91.11
30724;BME280;17473;52.286;20.930;2023-04-20T04:15:53;100659.66;;;9.74;90.55
30724;BME280;17473;52.286;20.930;2023-04-20T04:18:20;100657.03;;;9.53;91.09
30724;BME280;17473;52.286;20.930;2023-04-20T04:20:48;100659.69;;;9.53;90.84
30724;BME280;17473;52.286;20.930;2023-04-20T04:23:15;100660.75;;;9.37;91.91
30724;BME280;17473;52.286;20.930;2023-04-20T04:25:42;100658.66;;;9.49;92.02
30724;BME280;17473;52.286;20.930;2023-04-20T04:28:09;100657.66;;;9.47;92.18
30724;BME280;17473;52.286;20.930;2023-04-20T04:30:36;100655.72;;;9.64;91.42
30724;BME280;17473;52.286;20.930;2023-04-20T04:33:03;100666.09;;;9.60;91.31
30724;BME280;17473;52.286;20.930;2023-04-20T04:35:31;100664.81;;;9.50;92.36
30724;BME280;17473;52.286;20.930;2023-04-20T04:37:59;100658.75;;;9.52;91.90
30724;BME280;17473;52.286;20.930;2023-04-20T04:40:26;100672.72;;;9.71;91.34
30724;BME280;17473;52.286;20.930;2023-04-20T04:42:53;100673.63;;;9.93;89.96
30724;BME280;17473;52.286;20.930;2023-04-20T04:45:21;100667.78;;;9.79;90.21
30724;BME280;17473;52.286;20.930;2023-04-20T04:47:51;100677.22;;;9.95;89.66
30724;BME280;17473;52.286;20.930;2023-04-20T04:50:20;100668.06;;;10.08;88.30
30724;BME280;17473;52.286;20.930;2023-04-20T04:52:47;100674.06;;;9.82;90.03
30724;BME280;17473;52.286;20.930;2023-04-20T04:55:15;100681.44;;;9.91;90.34
30724;BME280;17473;52.286;20.930;2023-04-20T04:57:42;100688.53;;;9.92;89.33
30724;BME280;17473;52.286;20.930;2023-04-20T05:00:10;100688.63;;;9.94;89.32
30724;BME280;17473;52.286;20.930;2023-04-20T05:02:38;100696.78;;;9.79;90.35
30724;BME280;17473;52.286;20.930;2023-04-20T05:05:07;100698.16;;;10.13;89.12
30724;BME280;17473;52.286;20.930;2023-04-20T05:07:36;100687.75;;;9.74;90.23
30724;BME280;17473;52.286;20.930;2023-04-20T05:10:05;100696.34;;;9.89;91.75
30724;BME280;17473;52.286;20.930;2023-04-20T05:12:33;100689.78;;;10.23;89.39
30724;BME280;17473;52.286;20.930;2023-04-20T05:15:00;100685.31;;;10.43;88.47
30724;BME280;17473;52.286;20.930;2023-04-20T05:17:27;100690.66;;;10.45;87.65
30724;BME280;17473;52.286;20.930;2023-04-20T05:19:54;100692.25;;;10.87;85.34
30724;BME280;17473;52.286;20.930;2023-04-20T05:22:21;100705.94;;;10.76;85.24
30724;BME280;17473;52.286;20.930;2023-04-20T05:24:48;100705.19;;;10.56;85.92
30724;BME280;17473;52.286;20.930;2023-04-20T05:27:15;100701.16;;;10.43;87.17
30724;BME280;17473;52.286;20.930;2023-04-20T05:29:42;100698.47;;;10.42;88.07
30724;BME280;17473;52.286;20.930;2023-04-20T05:32:09;100702.09;;;10.68;86.64
30724;BME280;17473;52.286;20.930;2023-04-20T05:34:37;100705.88;;;10.98;85.30
30724;BME280;17473;52.286;20.930;2023-04-20T05:37:04;100709.31;;;11.71;81.87
30724;BME280;17473;52.286;20.930;2023-04-20T05:39:32;100712.78;;;11.68;81.42
30724;BME280;17473;52.286;20.930;2023-04-20T05:41:59;100715.84;;;11.81;80.06
30724;BME280;17473;52.286;20.930;2023-04-20T05:44:26;100713.25;;;11.82;80.22
30724;BME280;17473;52.286;20.930;2023-04-20T05:46:53;100720.78;;;11.96;78.52
30724;BME280;17473;52.286;20.930;2023-04-20T05:49:20;100720.78;;;11.96;78.16
30724;BME280;17473;52.286;20.930;2023-04-20T05:51:47;100718.84;;;11.92;76.95
30724;BME280;17473;52.286;20.930;2023-04-20T05:54:14;100725.50;;;11.80;78.49
30724;BME280;17473;52.286;20.930;2023-04-20T05:56:41;100727.34;;;12.34;77.92
30724;BME280;17473;52.286;20.930;2023-04-20T05:59:08;100716.41;;;12.81;74.18
30724;BME280;17473;52.286;20.930;2023-04-20T06:01:35;100725.94;;;12.46;75.55
30724;BME280;17473;52.286;20.930;2023-04-20T06:04:02;100724.16;;;13.36;71.78
30724;BME280;17473;52.286;20.930;2023-04-20T06:06:30;100740.28;;;13.74;69.00
30724;BME280;17473;52.286;20.930;2023-04-20T06:08:57;100738.50;;;13.75;68.60
30724;BME280;17473;52.286;20.930;2023-04-20T06:11:25;100741.00;;;14.02;67.82
30724;BME280;17473;52.286;20.930;2023-04-20T06:13:52;100735.44;;;14.30;66.75
30724;BME280;17473;52.286;20.930;2023-04-20T06:16:19;100748.94;;;14.76;63.52
30724;BME280;17473;52.286;20.930;2023-04-20T06:18:46;100731.88;;;18.02;53.10
30724;BME280;17473;52.286;20.930;2023-04-20T06:21:13;100729.97;;;21.14;43.92
30724;BME280;17473;52.286;20.930;2023-04-20T06:23:42;100723.34;;;22.79;40.19
30724;BME280;17473;52.286;20.930;2023-04-20T06:26:10;100722.31;;;24.71;36.36
30724;BME280;17473;52.286;20.930;2023-04-20T06:28:37;100717.00;;;21.88;40.07
30724;BME280;17473;52.286;20.930;2023-04-20T06:31:05;100717.25;;;21.47;41.77
30724;BME280;17473;52.286;20.930;2023-04-20T06:33:32;100711.81;;;21.62;40.57
30724;BME280;17473;52.286;20.930;2023-04-20T06:35:59;100713.84;;;22.46;38.87
30724;BME280;17473;52.286;20.930;2023-04-20T06:38:26;100713.69;;;25.38;33.45
30724;BME280;17473;52.286;20.930;2023-04-20T06:40:53;100710.78;;;26.24;31.90
30724;BME280;17473;52.286;20.930;2023-04-20T06:43:20;100706.69;;;27.95;29.75
30724;BME280;17473;52.286;20.930;2023-04-20T06:45:47;100707.47;;;27.71;29.36
30724;BME280;17473;52.286;20.930;2023-04-20T06:48:14;100716.69;;;29.22;28.42
30724;BME280;17473;52.286;20.930;2023-04-20T06:50:57;100704.00;;;29.68;26.91
30724;BME280;17473;52.286;20.930;2023-04-20T06:53:24;100708.47;;;31.74;25.06
30724;BME280;17473;52.286;20.930;2023-04-20T06:55:54;100716.13;;;32.39;23.70
30724;BME280;17473;52.286;20.930;2023-04-20T06:58:22;100708.75;;;30.07;25.83
30724;BME280;17473;52.286;20.930;2023-04-20T07:00:49;100726.66;;;28.20;25.99
30724;BME280;17473;52.286;20.930;2023-04-20T07:03:16;100718.34;;;27.11;27.77
30724;BME280;17473;52.286;20.930;2023-04-20T07:05:45;100709.72;;;27.85;27.76
30724;BME280;17473;52.286;20.930;2023-04-20T07:08:12;100722.44;;;29.38;25.81
30724;BME280;17473;52.286;20.930;2023-04-20T07:10:42;100721.97;;;27.98;27.51
30724;BME280;17473;52.286;20.930;2023-04-20T07:13:09;100724.34;;;27.52;28.58
30724;BME280;17473;52.286;20.930;2023-04-20T07:15:36;100711.94;;;27.73;28.32
30724;BME280;17473;52.286;20.930;2023-04-20T07:18:03;100714.22;;;28.14;27.72
30724;BME280;17473;52.286;20.930;2023-04-20T07:20:30;100724.31;;;28.36;27.88
30724;BME280;17473;52.286;20.930;2023-04-20T07:22:57;100732.34;;;26.95;28.47
30724;BME280;17473;52.286;20.930;2023-04-20T07:25:24;100727.53;;;27.05;29.07
30724;BME280;17473;52.286;20.930;2023-04-20T07:27:51;100725.25;;;28.09;26.57
30724;BME280;17473;52.286;20.930;2023-04-20T07:30:18;100724.31;;;27.54;28.37
30724;BME280;17473;52.286;20.930;2023-04-20T07:32:45;100719.47;;;27.03;28.36
30724;BME280;17473;52.286;20.930;2023-04-20T07:35:12;100720.91;;;26.16;29.28
30724;BME280;17473;52.286;20.930;2023-04-20T07:37:40;100727.06;;;26.56;29.49
30724;BME280;17473;52.286;20.930;2023-04-20T07:40:08;100718.13;;;27.18;28.05
30724;BME280;17473;52.286;20.930;2023-04-20T07:42:35;100727.94;;;26.91;27.63
30724;BME280;17473;52.286;20.930;2023-04-20T07:45:04;100728.75;;;25.89;29.10
30724;BME280;17473;52.286;20.930;2023-04-20T07:47:35;100718.44;;;26.42;28.73
30724;BME280;17473;52.286;20.930;2023-04-20T07:50:04;100720.28;;;25.67;29.74
30724;BME280;17473;52.286;20.930;2023-04-20T07:52:32;100717.44;;;25.33;29.47
30724;BME280;17473;52.286;20.930;2023-04-20T07:54:59;100708.69;;;25.60;29.48
30724;BME280;17473;52.286;20.930;2023-04-20T07:57:27;100721.53;;;25.90;28.77
30724;BME280;17473;52.286;20.930;2023-04-20T07:59:54;100716.03;;;25.55;29.13
30724;BME280;17473;52.286;20.930;2023-04-20T08:02:21;100731.38;;;25.55;28.84
30724;BME280;17473;52.286;20.930;2023-04-20T08:04:49;100731.25;;;25.19;29.27
30724;BME280;17473;52.286;20.930;2023-04-20T08:07:16;100721.25;;;24.78;30.23
30724;BME280;17473;52.286;20.930;2023-04-20T08:09:43;100718.22;;;23.95;30.88
30724;BME280;17473;52.286;20.930;2023-04-20T08:12:10;100718.03;;;25.47;28.82
30724;BME280;17473;52.286;20.930;2023-04-20T08:14:38;100706.19;;;25.53;29.17
30724;BME280;17473;52.286;20.930;2023-04-20T08:17:07;100722.09;;;24.32;29.31
30724;BME280;17473;52.286;20.930;2023-04-20T08:19:34;100736.66;;;23.64;29.54
30724;BME280;17473;52.286;20.930;2023-04-20T08:22:03;100730.22;;;23.72;30.32
30724;BME280;17473;52.286;20.930;2023-04-20T08:24:30;100721.78;;;23.35;31.25
30724;BME280;17473;52.286;20.930;2023-04-20T08:26:57;100733.69;;;23.18;31.25
30724;BME280;17473;52.286;20.930;2023-04-20T08:29:25;100740.19;;;22.95;30.79
30724;BME280;17473;52.286;20.930;2023-04-20T08:31:52;100745.81;;;22.75;31.95
30724;BME280;17473;52.286;20.930;2023-04-20T08:34:19;100729.19;;;23.16;31.47
30724;BME280;17473;52.286;20.930;2023-04-20T08:36:46;100724.72;;;23.80;30.74
30724;BME280;17473;52.286;20.930;2023-04-20T08:39:19;100734.06;;;23.57;31.22
30724;BME280;17473;52.286;20.930;2023-04-20T08:41:49;100736.06;;;23.41;31.72
30724;BME280;17473;52.286;20.930;2023-04-20T08:44:20;100725.06;;;22.87;31.74
30724;BME280;17473;52.286;20.930;2023-04-20T08:46:48;100721.22;;;23.08;31.83
30724;BME280;17473;52.286;20.930;2023-04-20T08:49:17;100731.81;;;22.39;32.86
30724;BME280;17473;52.286;20.930;2023-04-20T08:51:46;100737.22;;;22.34;32.43
30724;BME280;17473;52.286;20.930;2023-04-20T08:54:14;100730.97;;;22.32;32.79
30724;BME280;17473;52.286;20.930;2023-04-20T08:56:44;100717.53;;;23.17;31.97
30724;BME280;17473;52.286;20.930;2023-04-20T08:59:13;100727.59;;;23.69;31.17
30724;BME280;17473;52.286;20.930;2023-04-20T09:01:41;100734.13;;;21.73;32.61
30724;BME280;17473;52.286;20.930;2023-04-20T09:04:19;100737.81;;;21.52;33.09
30724;BME280;17473;52.286;20.930;2023-04-20T09:06:49;100739.69;;;21.39;33.68
30724;BME280;17473;52.286;20.930;2023-04-20T09:09:19;100725.44;;;21.20;33.88
30724;BME280;17473;52.286;20.930;2023-04-20T09:11:47;100746.91;;;21.26;33.89
30724;BME280;17473;52.286;20.930;2023-04-20T09:14:15;100737.88;;;21.40;33.52
30724;BME280;17473;52.286;20.930;2023-04-20T09:16:51;100732.63;;;21.17;33.52
30724;BME280;17473;52.286;20.930;2023-04-20T09:19:29;100733.63;;;20.91;33.27
30724;BME280;17473;52.286;20.930;2023-04-20T09:22:00;100741.53;;;21.20;34.12
30724;BME280;17473;52.286;20.930;2023-04-20T09:24:32;100722.34;;;21.96;33.01
30724;BME280;17473;52.286;20.930;2023-04-20T09:27:01;100734.06;;;21.80;32.74
30724;BME280;17473;52.286;20.930;2023-04-20T09:29:28;100717.03;;;21.87;32.78
30724;BME280;17473;52.286;20.930;2023-04-20T09:31:56;100733.03;;;21.99;31.53
30724;BME280;17473;52.286;20.930;2023-04-20T09:34:23;100719.75;;;21.82;31.87
30724;BME280;17473;52.286;20.930;2023-04-20T09:36:51;100727.47;;;22.23;31.17
30724;BME280;17473;52.286;20.930;2023-04-20T09:39:23;100727.16;;;21.41;30.94
30724;BME280;17473;52.286;20.930;2023-04-20T09:41:51;100734.47;;;20.99;31.14
30724;BME280;17473;52.286;20.930;2023-04-20T09:44:18;100728.78;;;21.69;30.57
30724;BME280;17473;52.286;20.930;2023-04-20T09:46:46;100731.59;;;21.46;31.14
30724;BME280;17473;52.286;20.930;2023-04-20T09:49:13;100726.16;;;21.52;30.70
30724;BME280;17473;52.286;20.930;2023-04-20T09:51:44;100756.78;;;21.15;30.23
30724;BME280;17473;52.286;20.930;2023-04-20T09:54:12;100738.09;;;20.90;30.52
30724;BME280;17473;52.286;20.930;2023-04-20T09:56:40;100724.56;;;21.17;29.79
30724;BME280;17473;52.286;20.930;2023-04-20T09:59:08;100735.34;;;21.03;30.33
30724;BME280;17473;52.286;20.930;2023-04-20T10:01:35;100723.69;;;21.15;30.31
30724;BME280;17473;52.286;20.930;2023-04-20T10:04:07;100711.22;;;21.04;30.38
30724;BME280;17473;52.286;20.930;2023-04-20T10:06:52;100710.09;;;21.49;30.41
30724;BME280;17473;52.286;20.930;2023-04-20T10:09:24;100714.16;;;22.09;30.29
30724;BME280;17473;52.286;20.930;2023-04-20T10:12:08;100734.28;;;21.41;28.90
30724;BME280;17473;52.286;20.930;2023-04-20T10:14:35;100709.28;;;21.30;28.33
30724;BME280;17473;52.286;20.930;2023-04-20T10:17:07;100711.09;;;21.24;28.62
30724;BME280;17473;52.286;20.930;2023-04-20T10:19:43;100716.53;;;21.10;28.33
30724;BME280;17473;52.286;20.930;2023-04-20T10:22:23;100721.06;;;21.02;28.33
30724;BME280;17473;52.286;20.930;2023-04-20T10:24:50;100700.31;;;21.35;28.50
30724;BME280;17473;52.286;20.930;2023-04-20T10:27:21;100692.94;;;21.75;27.54
30724;BME280;17473;52.286;20.930;2023-04-20T10:29:48;100698.97;;;22.04;27.30
30724;BME280;17473;52.286;20.930;2023-04-20T10:32:27;100694.22;;;22.33;26.72
30724;BME280;17473;52.286;20.930;2023-04-20T10:35:06;100699.94;;;21.96;27.25
30724;BME280;17473;52.286;20.930;2023-04-20T10:37:35;100708.44;;;21.17;27.81
30724;BME280;17473;52.286;20.930;2023-04-20T10:40:12;100713.97;;;20.64;27.99
30724;BME280;17473;52.286;20.930;2023-04-20T10:42:45;100703.22;;;20.90;28.10
30724;BME280;17473;52.286;20.930;2023-04-20T10:45:12;100700.66;;;20.21;26.70
30724;BME280;17473;52.286;20.930;2023-04-20T10:47:39;100699.78;;;20.06;27.16
30724;BME280;17473;52.286;20.930;2023-04-20T10:52:37;100695.25;;;20.50;28.70
30724;BME280;17473;52.286;20.930;2023-04-20T10:55:05;100695.19;;;20.78;27.90
30724;BME280;17473;52.286;20.930;2023-04-20T10:57:35;100689.81;;;20.83;28.59
30724;BME280;17473;52.286;20.930;2023-04-20T11:00:24;100693.41;;;20.85;27.30
30724;BME280;17473;52.286;20.930;2023-04-20T11:02:54;100681.81;;;20.61;26.67
30724;BME280;17473;52.286;20.930;2023-04-20T11:05:25;100689.00;;;20.48;26.41
30724;BME280;17473;52.286;20.930;2023-04-20T11:07:57;100691.69;;;20.49;27.76
30724;BME280;17473;52.286;20.930;2023-04-20T11:10:41;100681.00;;;20.26;27.48
30724;BME280;17473;52.286;20.930;2023-04-20T11:13:28;100685.38;;;20.66;26.28
30724;BME280;17473;52.286;20.930;2023-04-20T11:15:56;100697.00;;;20.65;25.79
30724;BME280;17473;52.286;20.930;2023-04-20T11:18:23;100676.38;;;20.92;26.64
30724;BME280;17473;52.286;20.930;2023-04-20T11:20:52;100677.09;;;21.26;26.91
30724;BME280;17473;52.286;20.930;2023-04-20T11:23:21;100685.41;;;20.54;25.57
30724;BME280;17473;52.286;20.930;2023-04-20T11:25:54;100707.81;;;20.12;25.78
30724;BME280;17473;52.286;20.930;2023-04-20T11:28:22;100697.06;;;20.43;26.28
30724;BME280;17473;52.286;20.930;2023-04-20T11:30:49;100685.41;;;20.52;26.10
30724;BME280;17473;52.286;20.930;2023-04-20T11:33:28;100670.13;;;20.71;26.34
30724;BME280;17473;52.286;20.930;2023-04-20T11:35:59;100683.56;;;20.80;26.43
30724;BME280;17473;52.286;20.930;2023-04-20T11:38:32;100693.41;;;20.83;26.75
30724;BME280;17473;52.286;20.930;2023-04-20T11:41:00;100676.38;;;20.92;26.50
30724;BME280;17473;52.286;20.930;2023-04-20T11:43:31;100671.00;;;20.92;26.35
30724;BME280;17473;52.286;20.930;2023-04-20T11:45:59;100680.88;;;20.73;26.88
30724;BME280;17473;52.286;20.930;2023-04-20T11:48:32;100678.31;;;20.25;27.99
30724;BME280;17473;52.286;20.930;2023-04-20T11:50:59;100660.31;;;20.69;27.61
30724;BME280;17473;52.286;20.930;2023-04-20T11:53:26;100678.19;;;20.71;27.13
30724;BME280;17473;52.286;20.930;2023-04-20T11:55:53;100671.91;;;20.86;27.01
30724;BME280;17473;52.286;20.930;2023-04-20T11:58:20;100671.06;;;20.81;27.32
30724;BME280;17473;52.286;20.930;2023-04-20T12:00:47;100667.44;;;20.87;27.59
30724;BME280;17473;52.286;20.930;2023-04-20T12:03:14;100645.91;;;21.02;26.25
30724;BME280;17473;52.286;20.930;2023-04-20T12:05:41;100663.91;;;20.66;26.10
30724;BME280;17473;52.286;20.930;2023-04-20T12:08:09;100660.38;;;20.58;26.31
30724;BME280;17473;52.286;20.930;2023-04-20T12:10:36;100673.88;;;20.10;26.42
30724;BME280;17473;52.286;20.930;2023-04-20T12:13:03;100674.72;;;19.76;26.25
30724;BME280;17473;52.286;20.930;2023-04-20T12:15:30;100669.41;;;20.02;26.29
30724;BME280;17473;52.286;20.930;2023-04-20T12:17:57;100665.78;;;19.79;25.85
30724;BME280;17473;52.286;20.930;2023-04-20T12:20:25;100680.06;;;19.62;26.30
30724;BME280;17473;52.286;20.930;2023-04-20T12:22:52;100663.13;;;19.63;26.05
30724;BME280;17473;52.286;20.930;2023-04-20T12:25:19;100655.06;;;19.65;26.24
30724;BME280;17473;52.286;20.930;2023-04-20T12:27:46;100662.22;;;20.18;26.14
30724;BME280;17473;52.286;20.930;2023-04-20T12:30:15;100647.94;;;20.18;25.62
30724;BME280;17473;52.286;20.930;2023-04-20T12:32:42;100651.56;;;19.92;25.48
30724;BME280;17473;52.286;20.930;2023-04-20T12:35:09;100645.28;;;20.02;25.10
30724;BME280;17473;52.286;20.930;2023-04-20T12:37:36;100645.19;;;20.44;25.51
30724;BME280;17473;52.286;20.930;2023-04-20T12:40:05;100638.00;;;20.60;24.93
30724;BME280;17473;52.286;20.930;2023-04-20T12:42:32;100629.91;;;20.79;24.96
30724;BME280;17473;52.286;20.930;2023-04-20T12:44:59;100625.34;;;20.98;24.83
30724;BME280;17473;52.286;20.930;2023-04-20T12:47:27;100624.38;;;21.15;24.38
30724;BME280;17473;52.286;20.930;2023-04-20T12:49:54;100633.41;;;20.97;24.28
30724;BME280;17473;52.286;20.930;2023-04-20T12:52:22;100629.94;;;20.74;24.88